createdAt,value
2023-02-11T00:01:49.541Z,98805.09
2023-02-11T00:04:15.850Z,98807.03
2023-02-11T00:06:42.142Z,98810.78
2023-02-11T00:09:08.415Z,98804.69
2023-02-11T00:11:34.670Z,98803.56
2023-02-11T00:14:00.954Z,98801.22
2023-02-11T00:16:27.310Z,98807.44
2023-02-11T00:18:53.639Z,98800.78
2023-02-11T00:21:19.986Z,98803.28
2023-02-11T00:23:46.256Z,98806.88
2023-02-11T00:26:12.546Z,98807.31
2023-02-11T00:28:38.809Z,98800.94
2023-02-11T00:31:05.276Z,98807.19
2023-02-11T00:33:31.585Z,98796.50
2023-02-11T00:35:57.839Z,98795.22
2023-02-11T00:38:24.092Z,98791.91
2023-02-11T00:40:50.364Z,98790.94
2023-02-11T00:43:16.649Z,98787.59
2023-02-11T00:45:42.926Z,98790.78
2023-02-11T00:48:09.201Z,98786.47
2023-02-11T00:50:35.497Z,98784.97
2023-02-11T00:53:01.760Z,98785.66
2023-02-11T00:55:28.037Z,98768.72
2023-02-11T00:57:54.317Z,98773.56
2023-02-11T01:00:20.589Z,98761.06
2023-02-11T01:02:46.877Z,98758.28
2023-02-11T01:05:13.274Z,98758.97
2023-02-11T01:07:39.576Z,98764.91
2023-02-11T01:10:05.840Z,98761.84
2023-02-11T01:12:34.012Z,98758.25
2023-02-11T01:15:02.232Z,98752.66
2023-02-11T01:17:28.489Z,98751.00
2023-02-11T01:19:54.775Z,98752.97
2023-02-11T01:22:21.044Z,98755.19
2023-02-11T01:24:47.330Z,98756.31
2023-02-11T01:27:13.595Z,98764.09
2023-02-11T01:29:39.867Z,98761.22
2023-02-11T01:32:06.163Z,98772.53
2023-02-11T01:34:32.454Z,98766.97
2023-02-11T01:36:58.736Z,98768.38
2023-02-11T01:39:25.011Z,98760.06
2023-02-11T01:41:51.273Z,98763.69
2023-02-11T01:44:17.545Z,98761.72
2023-02-11T01:46:43.908Z,98753.00
2023-02-11T01:49:10.286Z,98762.56
2023-02-11T01:51:36.602Z,98761.59
2023-02-11T01:54:02.858Z,98763.41
2023-02-11T01:56:29.131Z,98765.47
2023-02-11T01:58:55.422Z,98769.78
2023-02-11T02:01:21.738Z,98763.00
2023-02-11T02:03:48.066Z,98757.88
2023-02-11T02:06:14.389Z,98747.91
2023-02-11T02:08:40.709Z,98743.88
2023-02-11T02:11:07.005Z,98736.13
2023-02-11T02:13:33.261Z,98735.97
2023-02-11T02:15:59.575Z,98738.91
2023-02-11T02:18:25.869Z,98739.72
2023-02-11T02:20:52.144Z,98737.38
2023-02-11T02:23:18.404Z,98737.38
2023-02-11T02:25:44.682Z,98735.72
2023-02-11T02:28:10.964Z,98738.63
2023-02-11T02:30:37.286Z,98740.28
2023-02-11T02:33:16.777Z,98734.19
2023-02-11T02:35:48.301Z,98726.00
2023-02-11T02:38:14.750Z,98718.13
2023-02-11T02:40:41.011Z,98715.34
2023-02-11T02:43:07.282Z,98715.75
2023-02-11T02:45:34.605Z,98712.84
2023-02-11T02:48:00.867Z,98716.03
2023-02-11T02:50:27.157Z,98710.91
2023-02-11T02:52:53.437Z,98707.56
2023-02-11T02:55:19.710Z,98701.19
2023-02-11T02:57:45.973Z,98710.63
2023-02-11T03:00:12.246Z,98706.19
2023-02-11T03:02:38.512Z,98709.66
2023-02-11T03:05:04.789Z,98710.75
2023-02-11T03:07:31.077Z,98712.16
2023-02-11T03:09:57.351Z,98705.78
2023-02-11T03:12:23.653Z,98707.84
2023-02-11T03:14:49.937Z,98700.94
2023-02-11T03:17:16.216Z,98704.66
2023-02-11T03:19:42.482Z,98700.78
2023-02-11T03:22:08.767Z,98702.44
2023-02-11T03:24:35.020Z,98701.63
2023-02-11T03:27:01.302Z,98696.50
2023-02-11T03:29:27.710Z,98701.19
2023-02-11T03:31:54.057Z,98697.03
2023-02-11T03:34:20.330Z,98689.41
2023-02-11T03:36:46.608Z,98693.00
2023-02-11T03:39:12.885Z,98686.78
2023-02-11T03:41:39.180Z,98692.03
2023-02-11T03:44:05.477Z,98684.16
2023-02-11T03:46:31.743Z,98685.25
2023-02-11T03:48:58.008Z,98681.78
2023-02-11T03:51:24.388Z,98689.97
2023-02-11T03:53:50.664Z,98682.06
2023-02-11T03:56:16.963Z,98680.13
2023-02-11T03:58:43.218Z,98681.22
2023-02-11T04:01:09.539Z,98682.19
2023-02-11T04:03:35.962Z,98686.38
2023-02-11T04:06:02.282Z,98678.75
2023-02-11T04:08:28.555Z,98683.59
2023-02-11T04:10:54.830Z,98680.81
2023-02-11T04:13:21.098Z,98674.84
2023-02-11T04:15:49.006Z,98672.78
2023-02-11T04:18:15.513Z,98671.94
2023-02-11T04:20:41.779Z,98674.44
2023-02-11T04:23:08.074Z,98679.44
2023-02-11T04:25:34.452Z,98675.84
2023-02-11T04:28:00.756Z,98670.84
2023-02-11T04:30:27.064Z,98672.22
2023-02-11T04:32:53.343Z,98678.47
2023-02-11T04:35:19.620Z,98679.44
2023-02-11T04:37:45.889Z,98675.41
2023-02-11T04:40:12.158Z,98676.81
2023-02-11T04:42:38.431Z,98676.81
2023-02-11T04:45:04.707Z,98683.47
2023-02-11T04:47:30.970Z,98680.81
2023-02-11T04:49:57.240Z,98676.94
2023-02-11T04:52:23.494Z,98672.38
2023-02-11T04:54:49.768Z,98669.88
2023-02-11T04:57:16.032Z,98665.59
2023-02-11T04:59:42.320Z,98652.16
2023-02-11T05:02:08.634Z,98657.56
2023-02-11T05:04:34.997Z,98656.44
2023-02-11T05:07:01.316Z,98660.31
2023-02-11T05:09:27.592Z,98666.00
2023-02-11T05:11:53.841Z,98668.63
2023-02-11T05:14:20.101Z,98661.84
2023-02-11T05:16:46.399Z,98656.44
2023-02-11T05:19:12.769Z,98660.59
2023-02-11T05:21:40.116Z,98655.19
2023-02-11T05:24:08.618Z,98653.94
2023-02-11T05:26:34.898Z,98642.19
2023-02-11T05:29:01.155Z,98647.44
2023-02-11T05:31:27.435Z,98648.00
2023-02-11T05:33:53.738Z,98641.06
2023-02-11T05:36:19.999Z,98641.47
2023-02-11T05:38:46.277Z,98632.63
2023-02-11T05:41:12.557Z,98643.97
2023-02-11T05:43:38.837Z,98640.50
2023-02-11T05:46:05.223Z,98646.44
2023-02-11T05:48:31.571Z,98647.56
2023-02-11T05:50:57.838Z,98645.50
2023-02-11T05:53:24.211Z,98643.69
2023-02-11T05:55:50.784Z,98647.72
2023-02-11T05:58:17.253Z,98642.59
2023-02-11T06:00:43.537Z,98644.13
2023-02-11T06:03:09.820Z,98644.94
2023-02-11T06:05:36.102Z,98643.97
2023-02-11T06:08:02.395Z,98638.72
2023-02-11T06:10:28.664Z,98646.47
2023-02-11T06:12:54.952Z,98654.50
2023-02-11T06:15:21.267Z,98652.00
2023-02-11T06:17:47.548Z,98655.34
2023-02-11T06:20:13.839Z,98648.00
2023-02-11T06:22:40.117Z,98635.09
2023-02-11T06:25:06.407Z,98636.34
2023-02-11T06:27:32.702Z,98639.13
2023-02-11T06:29:59.003Z,98644.38
2023-02-11T06:32:43.010Z,98644.38
2023-02-11T06:35:12.087Z,98649.91
2023-02-11T06:37:38.639Z,98651.16
2023-02-11T06:40:04.931Z,98656.84
2023-02-11T06:42:31.211Z,98660.03
2023-02-11T06:44:57.494Z,98665.28
2023-02-11T06:47:23.810Z,98665.16
2023-02-11T06:49:50.066Z,98660.59
2023-02-11T06:52:16.343Z,98663.09
2023-02-11T06:54:42.633Z,98663.91
2023-02-11T06:57:08.908Z,98670.69
2023-02-11T06:59:35.255Z,98662.94
2023-02-11T07:02:01.635Z,98666.53
2023-02-11T07:04:27.932Z,98664.75
2023-02-11T07:06:54.248Z,98667.09
2023-02-11T07:09:20.516Z,98668.47
2023-02-11T07:11:46.801Z,98675.41
2023-02-11T07:14:13.080Z,98672.91
2023-02-11T07:16:39.445Z,98682.72
2023-02-11T07:19:05.828Z,98693.00
2023-02-11T07:21:32.123Z,98704.63
2023-02-11T07:23:58.414Z,98702.41
2023-02-11T07:26:24.657Z,98705.44
2023-02-11T07:28:50.922Z,98703.22
2023-02-11T07:31:17.289Z,98711.22
2023-02-11T07:33:43.677Z,98713.03
2023-02-11T07:36:09.952Z,98720.47
2023-02-11T07:38:36.218Z,98719.38
2023-02-11T07:41:02.521Z,98717.72
2023-02-11T07:43:28.824Z,98716.63
2023-02-11T07:45:55.090Z,98722.97
2023-02-11T07:48:21.386Z,98719.38
2023-02-11T07:50:47.646Z,98716.19
2023-02-11T07:53:13.926Z,98721.44
2023-02-11T07:55:40.178Z,98713.16
2023-02-11T07:58:06.442Z,98715.38
2023-02-11T08:00:32.733Z,98719.28
2023-02-11T08:02:59.017Z,98721.78
2023-02-11T08:05:25.304Z,98723.19
2023-02-11T08:07:51.647Z,98734.28
2023-02-11T08:10:17.900Z,98735.41
2023-02-11T08:12:44.180Z,98729.84
2023-02-11T08:15:10.465Z,98722.38
2023-02-11T08:17:36.724Z,98728.34
2023-02-11T08:20:02.998Z,98731.41
2023-02-11T08:22:29.339Z,98730.28
2023-02-11T08:24:55.619Z,98728.50
2023-02-11T08:27:21.880Z,98734.03
2023-02-11T08:29:48.157Z,98735.72
2023-02-11T08:32:14.475Z,98743.88
2023-02-11T08:34:40.810Z,98746.38
2023-02-11T08:37:07.080Z,98751.38
2023-02-11T08:39:33.338Z,98748.47
2023-02-11T08:41:59.606Z,98746.25
2023-02-11T08:44:25.877Z,98749.84
2023-02-11T08:46:52.189Z,98742.50
2023-02-11T08:49:18.450Z,98750.69
2023-02-11T08:51:44.727Z,98747.47
2023-02-11T08:54:11.013Z,98757.31
2023-02-11T08:56:37.261Z,98752.47
2023-02-11T08:59:03.572Z,98759.53
2023-02-11T09:01:29.933Z,98763.25
2023-02-11T09:03:56.241Z,98769.34
2023-02-11T09:06:22.629Z,98754.44
2023-02-11T09:08:48.927Z,98763.28
2023-02-11T09:11:15.227Z,98765.50
2023-02-11T09:13:41.507Z,98770.59
2023-02-11T09:16:07.816Z,98776.66
2023-02-11T09:57:28.636Z,98789.03
2023-02-11T09:59:55.536Z,98789.63
2023-02-11T10:02:21.962Z,98786.22
2023-02-11T10:04:48.245Z,98784.94
2023-02-11T10:07:14.495Z,98800.72
2023-02-11T10:09:40.770Z,98798.94
2023-02-11T10:12:07.030Z,98797.66
2023-02-11T10:14:33.310Z,98796.34
2023-02-11T10:16:59.621Z,98795.22
2023-02-11T10:19:25.906Z,98786.16
2023-02-11T10:21:52.287Z,98784.34
2023-02-11T10:24:18.613Z,98790.00
2023-02-11T10:26:44.881Z,98784.91
2023-02-11T10:29:11.177Z,98777.69
2023-02-11T10:31:37.596Z,98777.38
2023-02-11T10:34:03.969Z,98780.09
2023-02-11T10:36:30.240Z,98769.63
2023-02-11T10:38:56.519Z,98773.31
2023-02-11T10:41:22.797Z,98774.47
2023-02-11T10:43:49.075Z,98768.22
2023-02-11T10:46:15.412Z,98767.75
2023-02-11T10:48:41.699Z,98765.28
2023-02-11T10:51:07.985Z,98759.69
2023-02-11T10:53:34.246Z,98750.41
2023-02-11T10:56:00.594Z,98756.75
2023-02-11T10:58:26.872Z,98754.16
2023-02-11T11:00:53.602Z,98753.81
2023-02-11T11:03:20.045Z,98745.22
2023-02-11T11:05:46.339Z,98738.25
2023-02-11T11:08:12.632Z,98742.72
2023-02-11T11:10:38.930Z,98724.50
2023-02-11T11:13:05.252Z,98741.56
2023-02-11T11:15:31.547Z,98733.97
2023-02-11T11:18:11.355Z,98734.28
2023-02-11T11:20:44.173Z,98723.19
2023-02-11T11:23:10.464Z,98723.84
2023-02-11T11:25:36.780Z,98723.84
2023-02-11T11:28:03.077Z,98722.69
2023-02-11T11:30:29.376Z,98726.97
2023-02-11T11:32:55.693Z,98724.97
2023-02-11T11:35:21.995Z,98717.19
2023-02-11T11:37:48.270Z,98708.72
2023-02-11T11:40:14.564Z,98704.72
2023-02-11T11:42:40.845Z,98701.69
2023-02-11T11:45:07.145Z,98697.69
2023-02-11T11:47:33.430Z,98702.31
2023-02-11T11:49:59.710Z,98698.13
2023-02-11T11:52:26.010Z,98698.16
2023-02-11T11:54:52.307Z,98697.81
2023-02-11T11:57:18.778Z,98687.66
2023-02-11T11:59:45.098Z,98679.31
2023-02-11T12:02:11.530Z,98675.34
2023-02-11T12:04:37.848Z,98676.75
2023-02-11T12:07:04.124Z,98672.41
2023-02-11T12:09:30.490Z,98661.91
2023-02-11T12:11:56.740Z,98670.69
2023-02-11T12:14:23.018Z,98665.22
2023-02-11T12:16:49.429Z,98656.34
2023-02-11T12:19:15.779Z,98651.72
2023-02-11T12:21:42.186Z,98650.09
2023-02-11T12:24:08.447Z,98647.25
2023-02-11T12:26:34.722Z,98636.09
2023-02-11T12:29:01.049Z,98640.88
2023-02-11T12:31:27.416Z,98641.44
2023-02-11T12:33:53.750Z,98647.22
2023-02-11T12:36:20.015Z,98641.09
2023-02-11T12:38:46.342Z,98630.84
2023-02-11T12:41:12.632Z,98639.19
2023-02-11T12:43:38.885Z,98637.81
2023-02-11T12:46:05.229Z,98629.56
2023-02-11T12:48:33.044Z,98626.91
2023-02-11T12:51:00.392Z,98620.75
2023-02-11T12:53:26.717Z,98617.09
2023-02-11T12:55:52.970Z,98613.59
2023-02-11T12:58:19.233Z,98618.38
2023-02-11T13:00:45.519Z,98612.28
2023-02-11T13:03:11.832Z,98609.34
2023-02-11T13:05:38.135Z,98601.16
2023-02-11T13:08:04.421Z,98593.50
2023-02-11T13:10:30.681Z,98591.66
2023-02-11T13:12:56.969Z,98588.44
2023-02-11T13:15:23.234Z,98580.88
2023-02-11T13:17:49.518Z,98585.81
2023-02-11T13:20:15.811Z,98585.47
2023-02-11T13:22:42.112Z,98585.81
2023-02-11T13:25:08.377Z,98584.28
2023-02-11T13:27:34.659Z,98580.09
2023-02-11T13:30:04.073Z,98577.28
2023-02-11T13:32:30.558Z,98569.44
2023-02-11T13:34:56.816Z,98567.78
2023-02-11T13:37:23.107Z,98575.22
2023-02-11T13:39:49.373Z,98577.91
2023-02-11T13:42:15.656Z,98569.47
2023-02-11T13:44:41.941Z,98571.00
2023-02-11T13:47:08.213Z,98572.81
2023-02-11T13:49:34.565Z,98569.19
2023-02-11T13:52:00.885Z,98564.91
2023-02-11T13:54:27.178Z,98569.97
2023-02-11T13:56:53.476Z,98554.66
2023-02-11T13:59:19.786Z,98559.78
2023-02-11T14:01:46.088Z,98564.75
2023-02-11T14:04:12.397Z,98557.50
2023-02-11T14:06:38.803Z,98552.56
2023-02-11T14:09:05.087Z,98559.28
2023-02-11T14:11:31.389Z,98553.56
2023-02-11T14:13:57.686Z,98552.56
2023-02-11T14:16:36.886Z,98552.13
2023-02-11T14:19:03.513Z,98552.38
2023-02-11T14:21:29.813Z,98547.28
2023-02-11T14:23:56.080Z,98542.81
2023-02-11T14:26:22.465Z,98545.09
2023-02-11T14:28:48.771Z,98551.06
2023-02-11T14:31:15.123Z,98548.25
2023-02-11T14:33:41.430Z,98553.41
2023-02-11T14:36:07.704Z,98553.69
2023-02-11T14:38:33.986Z,98551.66
2023-02-11T14:41:00.294Z,98550.41
2023-02-11T14:43:29.334Z,98555.97
2023-02-11T14:45:55.959Z,98554.59
2023-02-11T14:48:22.310Z,98555.47
2023-02-11T14:50:48.744Z,98538.84
2023-02-11T14:53:15.161Z,98540.53
2023-02-11T14:55:41.452Z,98532.47
2023-02-11T14:58:07.710Z,98535.34
2023-02-11T15:00:33.990Z,98526.13
2023-02-11T15:03:00.355Z,98527.13
2023-02-11T15:05:26.662Z,98518.16
2023-02-11T15:07:52.974Z,98521.88
2023-02-11T15:10:19.303Z,98517.78
2023-02-11T15:12:45.579Z,98519.81
2023-02-11T15:15:11.878Z,98527.22
2023-02-11T15:17:38.205Z,98524.16
2023-02-11T15:20:04.515Z,98523.53
2023-02-11T15:22:30.830Z,98521.28
2023-02-11T15:24:57.102Z,98515.09
2023-02-11T15:27:23.392Z,98527.22
2023-02-11T15:29:49.703Z,98515.28
2023-02-11T15:32:16.148Z,98509.50
2023-02-11T15:34:42.634Z,98511.09
2023-02-11T15:37:08.992Z,98513.16
2023-02-11T15:39:35.392Z,98508.59
2023-02-11T15:42:01.688Z,98514.13
2023-02-11T15:44:27.971Z,98509.75
2023-02-11T15:46:54.268Z,98511.03
2023-02-11T15:49:20.576Z,98502.00
2023-02-11T15:51:46.842Z,98503.16
2023-02-11T15:54:13.170Z,98506.22
2023-02-11T15:56:39.481Z,98503.72
2023-02-11T15:59:05.775Z,98518.25
2023-02-11T16:01:33.900Z,98513.47
2023-02-11T16:04:00.482Z,98513.22
2023-02-11T16:06:26.811Z,98506.19
2023-02-11T16:08:53.168Z,98502.84
2023-02-11T16:11:19.438Z,98499.69
2023-02-11T16:13:45.722Z,98504.75
2023-02-11T16:16:12.024Z,98505.13
2023-02-11T16:18:39.783Z,98503.44
2023-02-11T16:21:06.488Z,98497.66
2023-02-11T16:23:32.793Z,98510.50
2023-02-11T16:25:59.053Z,98495.88
2023-02-11T16:28:25.399Z,98497.63
2023-02-11T16:30:52.010Z,98512.75
2023-02-11T16:33:18.503Z,98518.19
2023-02-11T16:35:44.765Z,98520.16
2023-02-11T16:38:11.167Z,98521.91
2023-02-11T16:40:37.446Z,98522.22
2023-02-11T16:43:03.722Z,98514.16
2023-02-11T16:45:30.024Z,98520.03
2023-02-11T16:47:56.310Z,98521.41
2023-02-11T16:50:22.567Z,98523.16
2023-02-11T16:52:48.893Z,98521.72
2023-02-11T16:55:15.391Z,98523.66
2023-02-11T16:57:41.716Z,98514.28
2023-02-11T17:00:07.984Z,98520.16
2023-02-11T17:02:34.296Z,98532.19
2023-02-11T17:05:00.568Z,98524.94
2023-02-11T17:07:26.852Z,98526.13
2023-02-11T17:09:53.154Z,98531.63
2023-02-11T17:12:19.446Z,98530.34
2023-02-11T17:14:45.714Z,98538.25
2023-02-11T17:17:12.040Z,98534.47
2023-02-11T17:19:38.333Z,98533.19
2023-02-11T17:22:04.598Z,98533.91
2023-02-11T17:24:30.894Z,98541.25
2023-02-11T17:26:57.173Z,98541.44
2023-02-11T17:29:23.460Z,98540.34
2023-02-11T17:31:49.812Z,98542.38
2023-02-11T17:34:16.102Z,98548.50
2023-02-11T17:36:42.357Z,98554.06
2023-02-11T17:39:08.683Z,98557.44
2023-02-11T17:41:34.997Z,98555.50
2023-02-11T17:44:01.262Z,98558.69
2023-02-11T17:46:27.592Z,98564.84
2023-02-11T17:48:53.896Z,98569.47
2023-02-11T17:51:20.208Z,98567.81
2023-02-11T17:53:46.474Z,98575.81
2023-02-11T17:56:12.737Z,98571.56
2023-02-11T17:58:39.032Z,98578.88
2023-02-11T18:01:05.357Z,98580.88
2023-02-11T18:03:31.648Z,98578.41
2023-02-11T18:05:57.965Z,98582.41
2023-02-11T18:08:24.250Z,98586.72
2023-02-11T18:10:50.513Z,98580.09
2023-02-11T18:13:16.787Z,98588.25
2023-02-11T18:15:43.053Z,98588.25
2023-02-11T18:18:09.350Z,98593.91
2023-02-11T18:20:35.610Z,98589.25
2023-02-11T18:23:01.909Z,98587.59
2023-02-11T18:25:28.171Z,98594.91
2023-02-11T18:27:54.435Z,98592.78
2023-02-11T18:30:20.699Z,98599.28
2023-02-11T18:32:46.989Z,98596.63
2023-02-11T18:35:14.924Z,98595.81
2023-02-11T18:37:41.380Z,98596.31
2023-02-11T18:40:07.656Z,98601.50
2023-02-11T18:42:33.944Z,98602.56
2023-02-11T18:45:00.292Z,98598.94
2023-02-11T18:47:26.589Z,98608.91
2023-02-11T18:49:52.867Z,98608.41
2023-02-11T18:52:19.151Z,98610.41
2023-02-11T18:54:45.430Z,98609.59
2023-02-11T18:57:11.713Z,98613.41
2023-02-11T18:59:37.981Z,98619.91
2023-02-11T19:02:04.250Z,98614.28
2023-02-11T19:04:30.590Z,98620.44
2023-02-11T19:06:56.918Z,98620.47
2023-02-11T19:09:23.209Z,98624.81
2023-02-11T19:11:49.526Z,98625.31
2023-02-11T19:14:15.801Z,98621.84
2023-02-11T19:16:42.152Z,98625.00
2023-02-11T19:19:08.424Z,98626.81
2023-02-11T19:21:34.700Z,98622.50
2023-02-11T19:24:01.014Z,98621.69
2023-02-11T19:26:27.288Z,98628.16
2023-02-11T19:28:53.589Z,98623.19
2023-02-11T19:31:19.924Z,98623.19
2023-02-11T19:33:46.201Z,98630.00
2023-02-11T19:36:12.483Z,98626.41
2023-02-11T19:38:38.756Z,98633.03
2023-02-11T19:41:05.057Z,98627.91
2023-02-11T19:43:31.340Z,98637.34
2023-02-11T19:45:57.666Z,98634.22
2023-02-11T19:48:24.030Z,98632.22
2023-02-11T19:50:50.318Z,98639.84
2023-02-11T19:53:16.590Z,98627.91
2023-02-11T19:55:42.843Z,98622.94
2023-02-11T19:58:09.131Z,98633.72
2023-02-11T20:00:35.420Z,98627.25
2023-02-11T20:03:01.785Z,98629.72
2023-02-11T20:05:28.080Z,98626.59
2023-02-11T20:07:54.339Z,98628.91
2023-02-11T20:10:20.609Z,98630.72
2023-02-11T20:12:46.896Z,98627.22
2023-02-11T20:15:13.161Z,98627.91
2023-02-11T20:17:39.409Z,98628.56
2023-02-11T20:20:05.686Z,98626.22
2023-02-11T20:22:31.970Z,98623.09
2023-02-11T20:24:58.231Z,98625.41
2023-02-11T20:27:24.526Z,98626.91
2023-02-11T20:29:50.814Z,98619.44
2023-02-11T20:32:17.108Z,98616.28
2023-02-11T20:34:43.503Z,98615.28
2023-02-11T20:37:09.767Z,98607.50
2023-02-11T20:39:36.044Z,98618.25
2023-02-11T20:42:02.339Z,98614.94
2023-02-11T20:44:28.607Z,98609.66
2023-02-11T20:46:55.008Z,98610.31
2023-02-11T20:49:21.295Z,98610.47
2023-02-11T20:51:47.562Z,98608.81
2023-02-11T20:54:13.844Z,98611.31
2023-02-11T20:56:40.129Z,98612.13
2023-02-11T20:59:06.411Z,98615.94
2023-02-11T21:01:32.703Z,98618.06
2023-02-11T21:03:59.007Z,98628.31
2023-02-11T21:06:25.285Z,98630.59
2023-02-11T21:08:51.558Z,98621.47
2023-02-11T21:11:17.839Z,98616.19
2023-02-11T21:13:44.135Z,98615.16
2023-02-11T21:16:10.549Z,98613.81
2023-02-11T21:18:36.900Z,98615.63
2023-02-11T21:21:06.039Z,98622.06
2023-02-11T21:23:33.213Z,98618.41
2023-02-11T21:25:59.490Z,98611.47
2023-02-11T21:28:25.836Z,98611.63
2023-02-11T21:30:52.344Z,98618.22
2023-02-11T21:33:18.719Z,98623.31
2023-02-11T21:35:45.017Z,98618.50
2023-02-11T21:38:11.329Z,98622.09
2023-02-11T21:40:37.600Z,98617.59
2023-02-11T21:43:03.882Z,98620.25
2023-02-11T21:45:32.303Z,98615.94
2023-02-11T21:47:58.728Z,98621.91
2023-02-11T21:50:25.001Z,98614.28
2023-02-11T21:52:51.292Z,98614.75
2023-02-11T21:55:17.558Z,98619.16
2023-02-11T21:57:43.838Z,98614.97
2023-02-11T22:00:10.128Z,98621.38
2023-02-11T22:02:36.454Z,98627.66
2023-02-11T22:05:02.824Z,98630.53
2023-02-11T22:07:29.221Z,98633.88
2023-02-11T22:09:55.503Z,98631.53
2023-02-11T22:12:21.783Z,98629.25
2023-02-11T22:14:48.083Z,98625.94
2023-02-11T22:17:14.392Z,98631.06
2023-02-11T22:19:40.734Z,98635.53
2023-02-11T22:22:07.030Z,98634.69
2023-02-11T22:24:33.297Z,98623.28
2023-02-11T22:26:59.565Z,98635.22
2023-02-11T22:29:25.833Z,98630.75
2023-02-11T22:31:52.116Z,98640.81
2023-02-11T22:34:18.400Z,98629.72
2023-02-11T22:36:44.688Z,98631.69
2023-02-11T22:39:10.969Z,98624.69
2023-02-11T22:41:37.255Z,98632.09
2023-02-11T22:44:03.555Z,98633.91
2023-02-11T22:46:29.825Z,98627.94
2023-02-11T22:48:56.115Z,98623.16
2023-02-11T22:51:22.389Z,98620.22
2023-02-11T22:53:48.681Z,98628.00
2023-02-11T22:56:15.909Z,98631.78
2023-02-11T22:58:42.373Z,98633.97
2023-02-11T23:01:08.628Z,98630.47
2023-02-11T23:03:34.897Z,98627.00
2023-02-11T23:06:01.191Z,98629.50
2023-02-11T23:08:27.465Z,98630.19
2023-02-11T23:10:53.823Z,98622.56
2023-02-11T23:13:20.159Z,98625.03
2023-02-11T23:15:46.415Z,98622.25
2023-02-11T23:18:12.682Z,98625.19
2023-02-11T23:20:38.949Z,98623.91
2023-02-11T23:23:05.264Z,98614.53
2023-02-11T23:25:31.534Z,98615.72
2023-02-11T23:27:57.843Z,98607.81
2023-02-11T23:30:24.145Z,98617.09
2023-02-11T23:32:50.417Z,98614.97
2023-02-11T23:35:16.674Z,98618.63
2023-02-11T23:37:43.013Z,98618.31
2023-02-11T23:40:09.335Z,98619.00
2023-02-11T23:42:35.630Z,98605.78
2023-02-11T23:45:01.903Z,98606.44
2023-02-11T23:47:28.282Z,98603.66
2023-02-11T23:49:54.569Z,98613.41
2023-02-11T23:52:20.832Z,98610.59
2023-02-11T23:54:47.117Z,98603.34
2023-02-11T23:57:13.377Z,98600.53
2023-02-11T23:59:39.633Z,98603.84
